sensor_id;sensor_type;location;lat;lon;timestamp;pressure;altitude;pressure_sealevel;temperature;humidity
54600;BME280;40500;51.084;16.958;2023-06-04T00:02:20;100796.05;;;11.19;100.00
54600;BME280;40500;51.084;16.958;2023-06-04T00:04:52;100793.47;;;11.15;100.00
54600;BME280;40500;51.084;16.958;2023-06-04T00:07:23;100792.45;;;11.12;100.00
54600;BME280;40500;51.084;16.958;2023-06-04T00:09:54;100796.34;;;11.08;100.00
54600;BME280;40500;51.084;16.958;2023-06-04T00:12:25;100801.62;;;11.06;100.00
54600;BME280;40500;51.084;16.958;2023-06-04T00:14:56;100803.23;;;11.04;100.00
54600;BME280;40500;51.084;16.958;2023-06-04T00:17:27;100800.98;;;11.00;100.00
54600;BME280;40500;51.084;16.958;2023-06-04T00:19:58;100796.98;;;10.99;100.00
54600;BME280;40500;51.084;16.958;2023-06-04T00:22:29;100797.22;;;10.93;100.00
54600;BME280;40500;51.084;16.958;2023-06-04T00:25:00;100795.37;;;10.85;100.00
54600;BME280;40500;51.084;16.958;2023-06-04T00:27:31;100800.17;;;10.79;100.00
54600;BME280;40500;51.084;16.958;2023-06-04T00:30:01;100795.14;;;10.75;100.00
54600;BME280;40500;51.084;16.958;2023-06-04T00:32:32;100791.31;;;10.71;100.00
54600;BME280;40500;51.084;16.958;2023-06-04T00:35:04;100788.96;;;10.61;100.00
54600;BME280;40500;51.084;16.958;2023-06-04T00:37:36;100787.84;;;10.50;100.00
54600;BME280;40500;51.084;16.958;2023-06-04T00:40:11;100793.71;;;10.41;100.00
54600;BME280;40500;51.084;16.958;2023-06-04T00:42:42;100793.61;;;10.31;100.00
54600;BME280;40500;51.084;16.958;2023-06-04T00:45:14;100789.98;;;10.23;100.00
54600;BME280;40500;51.084;16.958;2023-06-04T00:47:52;100788.45;;;10.16;100.00
54600;BME280;40500;51.084;16.958;2023-06-04T00:50:30;100786.03;;;10.11;100.00
54600;BME280;40500;51.084;16.958;2023-06-04T00:53:02;100784.14;;;10.08;100.00
54600;BME280;40500;51.084;16.958;2023-06-04T00:55:34;100785.05;;;10.05;100.00
54600;BME280;40500;51.084;16.958;2023-06-04T00:58:04;100787.70;;;10.02;100.00
54600;BME280;40500;51.084;16.958;2023-06-04T01:00:35;100783.68;;;10.01;100.00
54600;BME280;40500;51.084;16.958;2023-06-04T01:03:13;100786.31;;;9.99;100.00
54600;BME280;40500;51.084;16.958;2023-06-04T01:05:51;100784.91;;;9.99;100.00
54600;BME280;40500;51.084;16.958;2023-06-04T01:08:30;100786.85;;;9.99;100.00
54600;BME280;40500;51.084;16.958;2023-06-04T01:11:01;100787.90;;;9.98;100.00
54600;BME280;40500;51.084;16.958;2023-06-04T01:13:32;100786.16;;;9.94;100.00
54600;BME280;40500;51.084;16.958;2023-06-04T01:16:06;100784.09;;;9.91;100.00
54600;BME280;40500;51.084;16.958;2023-06-04T01:18:39;100786.05;;;9.85;100.00
54600;BME280;40500;51.084;16.958;2023-06-04T01:21:13;100788.55;;;9.79;100.00
54600;BME280;40500;51.084;16.958;2023-06-04T01:23:50;100790.86;;;9.73;100.00
54600;BME280;40500;51.084;16.958;2023-06-04T01:26:32;100793.55;;;9.62;100.00
54600;BME280;40500;51.084;16.958;2023-06-04T01:29:04;100798.70;;;9.47;100.00
54600;BME280;40500;51.084;16.958;2023-06-04T01:31:43;100793.35;;;9.33;100.00
54600;BME280;40500;51.084;16.958;2023-06-04T01:34:14;100798.81;;;9.22;100.00
54600;BME280;40500;51.084;16.958;2023-06-04T01:36:47;100799.73;;;9.10;100.00
54600;BME280;40500;51.084;16.958;2023-06-04T01:39:22;100797.14;;;9.01;100.00
54600;BME280;40500;51.084;16.958;2023-06-04T01:41:52;100792.61;;;8.91;100.00
54600;BME280;40500;51.084;16.958;2023-06-04T01:44:27;100795.61;;;8.82;100.00
54600;BME280;40500;51.084;16.958;2023-06-04T01:46:57;100795.98;;;8.73;100.00
54600;BME280;40500;51.084;16.958;2023-06-04T01:49:28;100790.59;;;8.61;100.00
54600;BME280;40500;51.084;16.958;2023-06-04T01:52:03;100790.61;;;8.49;100.00
54600;BME280;40500;51.084;16.958;2023-06-04T01:54:41;100791.85;;;8.45;100.00
54600;BME280;40500;51.084;16.958;2023-06-04T01:57:12;100793.41;;;8.44;100.00
54600;BME280;40500;51.084;16.958;2023-06-04T01:59:45;100798.65;;;8.44;100.00
54600;BME280;40500;51.084;16.958;2023-06-04T02:02:18;100791.14;;;8.43;100.00
54600;BME280;40500;51.084;16.958;2023-06-04T02:04:49;100795.86;;;8.43;100.00
54600;BME280;40500;51.084;16.958;2023-06-04T02:07:21;100791.64;;;8.40;100.00
54600;BME280;40500;51.084;16.958;2023-06-04T02:09:51;100793.90;;;8.38;100.00
54600;BME280;40500;51.084;16.958;2023-06-04T02:12:21;100793.73;;;8.36;100.00
54600;BME280;40500;51.084;16.958;2023-06-04T02:14:52;100789.36;;;8.35;100.00
54600;BME280;40500;51.084;16.958;2023-06-04T02:17:23;100789.89;;;8.31;100.00
54600;BME280;40500;51.084;16.958;2023-06-04T02:19:55;100792.69;;;8.28;100.00
54600;BME280;40500;51.084;16.958;2023-06-04T02:22:28;100789.38;;;8.24;100.00
54600;BME280;40500;51.084;16.958;2023-06-04T02:24:59;100792.86;;;8.19;100.00
54600;BME280;40500;51.084;16.958;2023-06-04T02:27:30;100796.35;;;8.14;100.00
54600;BME280;40500;51.084;16.958;2023-06-04T02:30:00;100799.48;;;8.12;100.00
54600;BME280;40500;51.084;16.958;2023-06-04T02:32:33;100800.70;;;8.10;100.00
54600;BME280;40500;51.084;16.958;2023-06-04T02:35:06;100798.62;;;8.05;100.00
54600;BME280;40500;51.084;16.958;2023-06-04T02:37:37;100797.91;;;7.99;100.00
54600;BME280;40500;51.084;16.958;2023-06-04T02:40:10;100793.55;;;7.92;100.00
54600;BME280;40500;51.084;16.958;2023-06-04T02:42:41;100800.52;;;7.89;100.00
54600;BME280;40500;51.084;16.958;2023-06-04T02:45:12;100802.95;;;7.85;100.00
54600;BME280;40500;51.084;16.958;2023-06-04T02:47:44;100801.38;;;7.85;100.00
54600;BME280;40500;51.084;16.958;2023-06-04T02:50:16;100805.55;;;7.82;100.00
54600;BME280;40500;51.084;16.958;2023-06-04T02:52:46;100800.49;;;7.78;100.00
54600;BME280;40500;51.084;16.958;2023-06-04T02:55:18;100804.15;;;7.79;100.00
54600;BME280;40500;51.084;16.958;2023-06-04T02:57:48;100799.80;;;7.78;100.00
54600;BME280;40500;51.084;16.958;2023-06-04T03:00:21;100800.85;;;7.80;100.00
54600;BME280;40500;51.084;16.958;2023-06-04T03:02:51;100801.20;;;7.83;100.00
54600;BME280;40500;51.084;16.958;2023-06-04T03:05:24;100801.38;;;7.85;100.00
54600;BME280;40500;51.084;16.958;2023-06-04T03:07:56;100803.11;;;7.87;100.00
54600;BME280;40500;51.084;16.958;2023-06-04T03:10:27;100809.40;;;7.87;100.00
54600;BME280;40500;51.084;16.958;2023-06-04T03:13:05;100816.91;;;7.88;100.00
54600;BME280;40500;51.084;16.958;2023-06-04T03:15:36;100815.33;;;7.88;100.00
54600;BME280;40500;51.084;16.958;2023-06-04T03:18:09;100815.33;;;7.85;100.00
54600;BME280;40500;51.084;16.958;2023-06-04T03:20:41;100814.98;;;7.81;100.00
54600;BME280;40500;51.084;16.958;2023-06-04T03:23:13;100818.63;;;7.78;100.00
54600;BME280;40500;51.084;16.958;2023-06-04T03:25:51;100819.65;;;7.76;100.00
54600;BME280;40500;51.084;16.958;2023-06-04T03:28:21;100823.67;;;7.79;100.00
54600;BME280;40500;51.084;16.958;2023-06-04T03:30:54;100824.39;;;7.84;100.00
54600;BME280;40500;51.084;16.958;2023-06-04T03:33:28;100826.16;;;7.91;100.00
54600;BME280;40500;51.084;16.958;2023-06-04T03:36:05;100826.17;;;8.00;100.00
54600;BME280;40500;51.084;16.958;2023-06-04T03:38:37;100822.51;;;8.09;100.00
54600;BME280;40500;51.084;16.958;2023-06-04T03:41:08;100826.19;;;8.17;100.00
54600;BME280;40500;51.084;16.958;2023-06-04T03:43:39;100825.48;;;8.26;100.00
54600;BME280;40500;51.084;16.958;2023-06-04T03:46:12;100825.84;;;8.34;100.00
54600;BME280;40500;51.084;16.958;2023-06-04T03:48:43;100826.73;;;8.40;100.00
54600;BME280;40500;51.084;16.958;2023-06-04T03:51:16;100829.88;;;8.49;100.00
54600;BME280;40500;51.084;16.958;2023-06-04T03:53:47;100826.90;;;8.59;100.00
54600;BME280;40500;51.084;16.958;2023-06-04T03:56:17;100825.50;;;8.71;100.00
54600;BME280;40500;51.084;16.958;2023-06-04T03:58:52;100830.19;;;8.84;100.00
54600;BME280;40500;51.084;16.958;2023-06-04T04:01:26;100830.86;;;8.95;100.00
54600;BME280;40500;51.084;16.958;2023-06-04T04:03:58;100830.66;;;9.06;100.00
54600;BME280;40500;51.084;16.958;2023-06-04T04:06:34;100829.41;;;9.16;100.00
54600;BME280;40500;51.084;16.958;2023-06-04T04:09:06;100830.42;;;9.26;100.00
54600;BME280;40500;51.084;16.958;2023-06-04T04:11:38;100829.69;;;9.36;100.00
54600;BME280;40500;51.084;16.958;2023-06-04T04:14:11;100828.92;;;9.48;100.00
54600;BME280;40500;51.084;16.958;2023-06-04T04:16:43;100825.20;;;9.60;100.00
54600;BME280;40500;51.084;16.958;2023-06-04T04:19:15;100828.29;;;9.72;100.00
54600;BME280;40500;51.084;16.958;2023-06-04T04:21:47;100824.73;;;9.83;100.00
54600;BME280;40500;51.084;16.958;2023-06-04T04:24:26;100825.70;;;9.95;100.00
54600;BME280;40500;51.084;16.958;2023-06-04T04:27:02;100826.67;;;10.07;100.00
54600;BME280;40500;51.084;16.958;2023-06-04T04:29:36;100822.56;;;10.19;100.00
54600;BME280;40500;51.084;16.958;2023-06-04T04:32:09;100822.48;;;10.32;100.00
54600;BME280;40500;51.084;16.958;2023-06-04T04:34:54;100827.10;;;10.45;100.00
54600;BME280;40500;51.084;16.958;2023-06-04T04:37:30;100823.15;;;10.57;100.00
54600;BME280;40500;51.084;16.958;2023-06-04T04:40:01;100825.48;;;10.70;100.00
54600;BME280;40500;51.084;16.958;2023-06-04T04:42:33;100822.53;;;10.84;100.00
54600;BME280;40500;51.084;16.958;2023-06-04T04:45:09;100828.70;;;10.97;100.00
54600;BME280;40500;51.084;16.958;2023-06-04T04:47:40;100829.11;;;11.10;100.00
54600;BME280;40500;51.084;16.958;2023-06-04T04:50:12;100825.61;;;11.23;100.00
54600;BME280;40500;51.084;16.958;2023-06-04T04:52:43;100828.98;;;11.35;100.00
54600;BME280;40500;51.084;16.958;2023-06-04T04:55:18;100827.06;;;11.48;100.00
54600;BME280;40500;51.084;16.958;2023-06-04T04:57:50;100829.17;;;11.61;100.00
54600;BME280;40500;51.084;16.958;2023-06-04T05:00:37;100829.01;;;11.73;100.00
54600;BME280;40500;51.084;16.958;2023-06-04T05:03:08;100826.77;;;11.82;100.00
54600;BME280;40500;51.084;16.958;2023-06-04T05:05:42;100831.55;;;11.93;100.00
54600;BME280;40500;51.084;16.958;2023-06-04T05:08:14;100835.77;;;12.04;100.00
54600;BME280;40500;51.084;16.958;2023-06-04T05:11:00;100832.14;;;12.13;100.00
54600;BME280;40500;51.084;16.958;2023-06-04T05:13:31;100831.64;;;12.22;100.00
54600;BME280;40500;51.084;16.958;2023-06-04T05:16:15;100831.32;;;12.32;100.00
54600;BME280;40500;51.084;16.958;2023-06-04T05:18:50;100831.39;;;12.39;100.00
54600;BME280;40500;51.084;16.958;2023-06-04T05:21:24;100832.80;;;12.49;100.00
54600;BME280;40500;51.084;16.958;2023-06-04T05:24:01;100831.35;;;12.62;100.00
54600;BME280;40500;51.084;16.958;2023-06-04T05:26:34;100831.39;;;12.70;100.00
54600;BME280;40500;51.084;16.958;2023-06-04T05:29:15;100832.62;;;12.79;100.00
54600;BME280;40500;51.084;16.958;2023-06-04T05:31:47;100835.96;;;12.88;100.00
54600;BME280;40500;51.084;16.958;2023-06-04T05:34:20;100837.55;;;12.98;100.00
54600;BME280;40500;51.084;16.958;2023-06-04T05:36:51;100835.83;;;13.06;100.00
54600;BME280;40500;51.084;16.958;2023-06-04T05:39:27;100836.49;;;13.17;100.00
54600;BME280;40500;51.084;16.958;2023-06-04T05:42:09;100834.89;;;13.26;100.00
54600;BME280;40500;51.084;16.958;2023-06-04T05:44:41;100838.78;;;13.35;100.00
54600;BME280;40500;51.084;16.958;2023-06-04T05:47:12;100835.78;;;13.45;100.00
54600;BME280;40500;51.084;16.958;2023-06-04T05:49:45;100838.78;;;13.53;100.00
54600;BME280;40500;51.084;16.958;2023-06-04T05:52:18;100840.02;;;13.61;100.00
54600;BME280;40500;51.084;16.958;2023-06-04T05:54:49;100842.17;;;13.67;100.00
54600;BME280;40500;51.084;16.958;2023-06-04T05:57:21;100841.35;;;13.73;100.00
54600;BME280;40500;51.084;16.958;2023-06-04T05:59:53;100841.46;;;13.83;100.00
54600;BME280;40500;51.084;16.958;2023-06-04T06:02:24;100840.34;;;13.94;100.00
54600;BME280;40500;51.084;16.958;2023-06-04T06:04:55;100838.33;;;14.05;100.00
54600;BME280;40500;51.084;16.958;2023-06-04T06:07:28;100839.33;;;14.15;100.00
54600;BME280;40500;51.084;16.958;2023-06-04T06:10:01;100839.23;;;14.19;100.00
54600;BME280;40500;51.084;16.958;2023-06-04T06:12:34;100839.98;;;14.25;100.00
54600;BME280;40500;51.084;16.958;2023-06-04T06:15:07;100837.38;;;14.30;100.00
54600;BME280;40500;51.084;16.958;2023-06-04T06:17:42;100837.95;;;14.36;100.00
54600;BME280;40500;51.084;16.958;2023-06-04T06:20:13;100838.69;;;14.41;100.00
54600;BME280;40500;51.084;16.958;2023-06-04T06:22:48;100838.16;;;14.49;100.00
54600;BME280;40500;51.084;16.958;2023-06-04T06:25:20;100843.63;;;14.56;100.00
54600;BME280;40500;51.084;16.958;2023-06-04T06:27:56;100841.52;;;14.64;100.00
54600;BME280;40500;51.084;16.958;2023-06-04T06:30:30;100847.36;;;14.69;100.00
54600;BME280;40500;51.084;16.958;2023-06-04T06:33:01;100840.21;;;14.80;100.00
54600;BME280;40500;51.084;16.958;2023-06-04T06:35:31;100842.60;;;14.89;100.00
54600;BME280;40500;51.084;16.958;2023-06-04T06:38:03;100842.63;;;14.95;100.00
54600;BME280;40500;51.084;16.958;2023-06-04T06:40:33;100841.45;;;14.99;100.00
54600;BME280;40500;51.084;16.958;2023-06-04T06:43:04;100844.09;;;15.06;100.00
54600;BME280;40500;51.084;16.958;2023-06-04T06:45:35;100846.17;;;15.13;100.00
54600;BME280;40500;51.084;16.958;2023-06-04T06:48:06;100849.27;;;15.23;100.00
54600;BME280;40500;51.084;16.958;2023-06-04T06:50:37;100850.19;;;15.28;100.00
54600;BME280;40500;51.084;16.958;2023-06-04T06:53:08;100850.91;;;15.33;100.00
54600;BME280;40500;51.084;16.958;2023-06-04T06:55:41;100850.70;;;15.41;100.00
54600;BME280;40500;51.084;16.958;2023-06-04T06:58:12;100851.00;;;15.49;100.00
54600;BME280;40500;51.084;16.958;2023-06-04T07:00:42;100857.14;;;15.57;100.00
54600;BME280;40500;51.084;16.958;2023-06-04T07:03:14;100856.66;;;15.61;100.00
54600;BME280;40500;51.084;16.958;2023-06-04T07:05:45;100852.23;;;15.67;100.00
54600;BME280;40500;51.084;16.958;2023-06-04T07:08:16;100853.79;;;15.75;100.00
54600;BME280;40500;51.084;16.958;2023-06-04T07:10:47;100854.62;;;15.83;100.00
54600;BME280;40500;51.084;16.958;2023-06-04T07:13:17;100854.28;;;15.88;100.00
54600;BME280;40500;51.084;16.958;2023-06-04T07:15:49;100855.33;;;15.95;100.00
54600;BME280;40500;51.084;16.958;2023-06-04T07:18:21;100853.64;;;15.98;100.00
54600;BME280;40500;51.084;16.958;2023-06-04T07:20:51;100853.81;;;16.03;100.00
54600;BME280;40500;51.084;16.958;2023-06-04T07:23:26;100853.67;;;16.08;100.00
54600;BME280;40500;51.084;16.958;2023-06-04T07:25:57;100854.86;;;16.15;100.00
54600;BME280;40500;51.084;16.958;2023-06-04T07:28:27;100850.73;;;16.23;100.00
54600;BME280;40500;51.084;16.958;2023-06-04T07:30:58;100852.50;;;16.34;100.00
54600;BME280;40500;51.084;16.958;2023-06-04T07:33:28;100850.45;;;16.42;100.00
54600;BME280;40500;51.084;16.958;2023-06-04T07:35:59;100851.82;;;16.48;100.00
54600;BME280;40500;51.084;16.958;2023-06-04T07:38:29;100854.89;;;16.52;100.00
54600;BME280;40500;51.084;16.958;2023-06-04T07:41:00;100853.02;;;16.55;98.79
54600;BME280;40500;51.084;16.958;2023-06-04T07:43:32;100851.37;;;16.57;96.46
54600;BME280;40500;51.084;16.958;2023-06-04T07:46:05;100858.34;;;16.65;96.15
54600;BME280;40500;51.084;16.958;2023-06-04T07:48:35;100859.67;;;16.73;97.53
54600;BME280;40500;51.084;16.958;2023-06-04T07:51:06;100859.40;;;16.82;96.75
54600;BME280;40500;51.084;16.958;2023-06-04T07:53:37;100854.25;;;16.88;94.09
54600;BME280;40500;51.084;16.958;2023-06-04T07:56:08;100853.13;;;16.94;92.88
54600;BME280;40500;51.084;16.958;2023-06-04T07:58:38;100850.98;;;17.00;90.39
54600;BME280;40500;51.084;16.958;2023-06-04T08:01:10;100853.84;;;17.05;91.72
54600;BME280;40500;51.084;16.958;2023-06-04T08:03:41;100850.59;;;17.11;92.45
54600;BME280;40500;51.084;16.958;2023-06-04T08:06:12;100848.21;;;17.18;92.66
54600;BME280;40500;51.084;16.958;2023-06-04T08:08:45;100846.85;;;17.26;92.21
54600;BME280;40500;51.084;16.958;2023-06-04T08:11:18;100840.98;;;17.32;90.67
54600;BME280;40500;51.084;16.958;2023-06-04T08:13:50;100846.67;;;17.36;90.67
54600;BME280;40500;51.084;16.958;2023-06-04T08:16:20;100842.85;;;17.39;86.52
54600;BME280;40500;51.084;16.958;2023-06-04T08:18:52;100843.19;;;17.45;85.55
54600;BME280;40500;51.084;16.958;2023-06-04T08:21:28;100845.58;;;17.52;83.62
54600;BME280;40500;51.084;16.958;2023-06-04T08:23:58;100842.98;;;17.55;82.07
54600;BME280;40500;51.084;16.958;2023-06-04T08:26:31;100842.36;;;17.61;83.06
54600;BME280;40500;51.084;16.958;2023-06-04T08:29:03;100844.48;;;17.66;83.45
54600;BME280;40500;51.084;16.958;2023-06-04T08:31:34;100843.45;;;17.70;83.55
54600;BME280;40500;51.084;16.958;2023-06-04T08:34:04;100839.58;;;17.74;84.13
54600;BME280;40500;51.084;16.958;2023-06-04T08:36:38;100842.39;;;17.75;82.69
54600;BME280;40500;51.084;16.958;2023-06-04T08:39:09;100848.23;;;17.79;82.39
54600;BME280;40500;51.084;16.958;2023-06-04T08:41:45;100844.71;;;17.84;80.20
54600;BME280;40500;51.084;16.958;2023-06-04T08:44:17;100842.33;;;17.87;75.44
54600;BME280;40500;51.084;16.958;2023-06-04T08:46:52;100843.30;;;17.89;76.94
54600;BME280;40500;51.084;16.958;2023-06-04T08:49:25;100848.90;;;17.95;74.84
54600;BME280;40500;51.084;16.958;2023-06-04T08:51:57;100849.45;;;17.99;74.49
54600;BME280;40500;51.084;16.958;2023-06-04T08:54:28;100846.13;;;18.02;74.45
54600;BME280;40500;51.084;16.958;2023-06-04T08:56:59;100849.45;;;18.03;73.37
54600;BME280;40500;51.084;16.958;2023-06-04T08:59:30;100856.71;;;18.08;74.10
54600;BME280;40500;51.084;16.958;2023-06-04T09:02:00;100858.34;;;18.11;73.28
54600;BME280;40500;51.084;16.958;2023-06-04T09:04:33;100856.58;;;18.16;72.39
54600;BME280;40500;51.084;16.958;2023-06-04T09:07:06;100858.36;;;18.20;71.01
54600;BME280;40500;51.084;16.958;2023-06-04T09:09:40;100863.77;;;18.22;70.48
54600;BME280;40500;51.084;16.958;2023-06-04T09:12:13;100859.58;;;18.25;69.04
54600;BME280;40500;51.084;16.958;2023-06-04T09:14:48;100858.56;;;18.28;68.78
54600;BME280;40500;51.084;16.958;2023-06-04T09:17:23;100857.67;;;18.33;67.63
54600;BME280;40500;51.084;16.958;2023-06-04T09:19:54;100856.23;;;18.38;66.36
54600;BME280;40500;51.084;16.958;2023-06-04T09:22:34;100852.92;;;18.41;66.20
54600;BME280;40500;51.084;16.958;2023-06-04T09:25:08;100853.34;;;18.39;65.67
54600;BME280;40500;51.084;16.958;2023-06-04T09:27:49;100854.48;;;18.41;68.44
54600;BME280;40500;51.084;16.958;2023-06-04T09:30:20;100852.77;;;18.44;70.26
54600;BME280;40500;51.084;16.958;2023-06-04T09:32:51;100852.35;;;18.50;71.23
54600;BME280;40500;51.084;16.958;2023-06-04T09:35:23;100846.68;;;18.54;71.39
54600;BME280;40500;51.084;16.958;2023-06-04T09:37:55;100853.66;;;18.61;72.81
54600;BME280;40500;51.084;16.958;2023-06-04T09:40:36;100857.43;;;18.68;72.26
54600;BME280;40500;51.084;16.958;2023-06-04T09:43:08;100858.52;;;18.77;70.29
54600;BME280;40500;51.084;16.958;2023-06-04T09:45:40;100854.03;;;18.86;68.24
54600;BME280;40500;51.084;16.958;2023-06-04T09:48:20;100852.14;;;18.85;66.55
54600;BME280;40500;51.084;16.958;2023-06-04T09:50:51;100852.75;;;18.83;68.67
54600;BME280;40500;51.084;16.958;2023-06-04T09:53:21;100848.40;;;18.85;69.09
54600;BME280;40500;51.084;16.958;2023-06-04T09:56:01;100841.56;;;18.88;69.66
54600;BME280;40500;51.084;16.958;2023-06-04T09:58:37;100836.58;;;18.92;71.65
54600;BME280;40500;51.084;16.958;2023-06-04T10:01:12;100839.55;;;18.97;71.47
54600;BME280;40500;51.084;16.958;2023-06-04T10:03:48;100836.34;;;19.06;70.31
54600;BME280;40500;51.084;16.958;2023-06-04T10:06:21;100833.11;;;19.14;69.88
54600;BME280;40500;51.084;16.958;2023-06-04T10:08:52;100827.76;;;19.19;70.63
54600;BME280;40500;51.084;16.958;2023-06-04T10:11:30;100832.05;;;19.18;69.41
54600;BME280;40500;51.084;16.958;2023-06-04T10:14:06;100830.59;;;19.19;70.24
54600;BME280;40500;51.084;16.958;2023-06-04T10:16:39;100826.52;;;19.19;68.64
54600;BME280;40500;51.084;16.958;2023-06-04T10:19:10;100822.69;;;19.13;67.86
54600;BME280;40500;51.084;16.958;2023-06-04T10:21:41;100816.16;;;19.08;65.42
54600;BME280;40500;51.084;16.958;2023-06-04T10:24:13;100817.17;;;19.13;67.15
54600;BME280;40500;51.084;16.958;2023-06-04T10:26:44;100814.76;;;19.20;69.03
54600;BME280;40500;51.084;16.958;2023-06-04T10:29:15;100809.64;;;19.27;69.83
54600;BME280;40500;51.084;16.958;2023-06-04T10:31:47;100810.36;;;19.42;70.71
54600;BME280;40500;51.084;16.958;2023-06-04T10:34:19;100811.85;;;19.60;69.16
54600;BME280;40500;51.084;16.958;2023-06-04T10:36:49;100814.35;;;19.75;68.18
54600;BME280;40500;51.084;16.958;2023-06-04T10:39:28;100819.40;;;19.85;66.50
54600;BME280;40500;51.084;16.958;2023-06-04T10:42:03;100814.08;;;19.92;65.08
54600;BME280;40500;51.084;16.958;2023-06-04T10:44:46;100812.94;;;19.94;63.47
54600;BME280;40500;51.084;16.958;2023-06-04T10:47:21;100810.46;;;19.93;63.04
54600;BME280;40500;51.084;16.958;2023-06-04T10:49:52;100808.78;;;19.99;62.71
54600;BME280;40500;51.084;16.958;2023-06-04T10:52:23;100810.16;;;20.14;62.37
54600;BME280;40500;51.084;16.958;2023-06-04T10:55:04;100804.91;;;20.23;57.71
54600;BME280;40500;51.084;16.958;2023-06-04T10:57:36;100804.07;;;20.15;54.59
54600;BME280;40500;51.084;16.958;2023-06-04T11:00:38;100800.70;;;20.26;56.92
54600;BME280;40500;51.084;16.958;2023-06-04T11:03:10;100798.45;;;20.46;58.40
54600;BME280;40500;51.084;16.958;2023-06-04T11:05:46;100795.70;;;20.62;57.67
54600;BME280;40500;51.084;16.958;2023-06-04T11:08:30;100801.27;;;20.75;56.40
54600;BME280;40500;51.084;16.958;2023-06-04T11:11:25;100796.33;;;20.87;55.24
54600;BME280;40500;51.084;16.958;2023-06-04T11:13:56;100792.61;;;20.98;55.29
54600;BME280;40500;51.084;16.958;2023-06-04T11:16:37;100795.11;;;21.07;53.95
54600;BME280;40500;51.084;16.958;2023-06-04T11:19:07;100788.99;;;21.15;54.86
54600;BME280;40500;51.084;16.958;2023-06-04T11:21:38;100787.05;;;21.25;56.46
54600;BME280;40500;51.084;16.958;2023-06-04T11:24:15;100789.40;;;21.30;56.14
54600;BME280;40500;51.084;16.958;2023-06-04T11:26:46;100789.25;;;21.37;56.00
54600;BME280;40500;51.084;16.958;2023-06-04T11:29:37;100790.89;;;21.49;58.18
54600;BME280;40500;51.084;16.958;2023-06-04T11:32:08;100786.83;;;21.59;58.04
54600;BME280;40500;51.084;16.958;2023-06-04T11:34:39;100787.19;;;21.59;57.75
54600;BME280;40500;51.084;16.958;2023-06-04T11:37:10;100784.69;;;21.65;58.51
54600;BME280;40500;51.084;16.958;2023-06-04T11:39:41;100780.59;;;21.71;59.10
54600;BME280;40500;51.084;16.958;2023-06-04T11:42:13;100781.23;;;21.82;58.85
54600;BME280;40500;51.084;16.958;2023-06-04T11:44:44;100782.52;;;21.85;56.35
54600;BME280;40500;51.084;16.958;2023-06-04T11:47:18;100775.11;;;21.89;55.83
54600;BME280;40500;51.084;16.958;2023-06-04T11:49:52;100779.83;;;22.00;56.13
54600;BME280;40500;51.084;16.958;2023-06-04T11:52:24;100782.65;;;22.13;55.42
54600;BME280;40500;51.084;16.958;2023-06-04T11:54:55;100776.58;;;22.17;53.65
54600;BME280;40500;51.084;16.958;2023-06-04T11:57:27;100779.73;;;22.27;54.72
54600;BME280;40500;51.084;16.958;2023-06-04T11:59:58;100777.39;;;22.40;54.34
54600;BME280;40500;51.084;16.958;2023-06-04T12:02:32;100775.64;;;22.54;54.84
54600;BME280;40500;51.084;16.958;2023-06-04T12:05:13;100771.73;;;22.66;50.18
54600;BME280;40500;51.084;16.958;2023-06-04T12:07:43;100770.33;;;22.74;51.16
54600;BME280;40500;51.084;16.958;2023-06-04T12:10:15;100767.46;;;22.86;50.75
54600;BME280;40500;51.084;16.958;2023-06-04T12:12:46;100765.79;;;22.99;47.66
54600;BME280;40500;51.084;16.958;2023-06-04T12:15:21;100766.64;;;23.14;50.05
54600;BME280;40500;51.084;16.958;2023-06-04T12:17:53;100765.98;;;23.33;49.07
54600;BME280;40500;51.084;16.958;2023-06-04T12:20:35;100763.61;;;23.48;49.68
54600;BME280;40500;51.084;16.958;2023-06-04T12:23:06;100764.64;;;23.62;47.18
54600;BME280;40500;51.084;16.958;2023-06-04T12:25:37;100768.09;;;23.67;45.64
54600;BME280;40500;51.084;16.958;2023-06-04T12:28:18;100764.59;;;23.83;44.76
54600;BME280;40500;51.084;16.958;2023-06-04T12:30:48;100757.61;;;23.99;45.56
54600;BME280;40500;51.084;16.958;2023-06-04T12:33:19;100759.55;;;24.16;44.77
54600;BME280;40500;51.084;16.958;2023-06-04T12:35:49;100760.23;;;24.30;42.27
54600;BME280;40500;51.084;16.958;2023-06-04T12:38:20;100760.71;;;24.36;42.57
54600;BME280;40500;51.084;16.958;2023-06-04T12:40:50;100755.63;;;24.42;43.03
54600;BME280;40500;51.084;16.958;2023-06-04T12:43:23;100757.27;;;24.44;42.04
54600;BME280;40500;51.084;16.958;2023-06-04T12:45:55;100756.31;;;24.48;41.91
54600;BME280;40500;51.084;16.958;2023-06-04T12:48:26;100756.91;;;24.55;41.40
54600;BME280;40500;51.084;16.958;2023-06-04T12:50:58;100760.20;;;24.67;39.30
54600;BME280;40500;51.084;16.958;2023-06-04T12:53:28;100757.00;;;24.80;40.06
54600;BME280;40500;51.084;16.958;2023-06-04T12:55:59;100758.86;;;24.92;40.36
54600;BME280;40500;51.084;16.958;2023-06-04T12:58:29;100755.79;;;25.10;39.82
54600;BME280;40500;51.084;16.958;2023-06-04T13:00:59;100753.60;;;25.33;38.53
54600;BME280;40500;51.084;16.958;2023-06-04T13:03:31;100754.75;;;25.45;38.30
54600;BME280;40500;51.084;16.958;2023-06-04T13:06:01;100747.39;;;25.50;38.27
54600;BME280;40500;51.084;16.958;2023-06-04T13:08:32;100742.45;;;25.51;38.05